createdAt,value
2019-03-23T00:00:49.650Z,12.10
2019-03-23T00:03:39.550Z,12.10
2019-03-23T00:06:30.947Z,12.00
2019-03-23T00:09:20.384Z,12.00
2019-03-23T00:12:10.010Z,12.00
2019-03-23T00:14:59.166Z,12.00
2019-03-23T00:17:48.971Z,11.90
2019-03-23T00:20:38.780Z,11.90
2019-03-23T00:23:28.600Z,11.90
2019-03-23T00:26:18.651Z,11.80
2019-03-23T00:29:08.413Z,11.80
2019-03-23T00:31:57.842Z,11.80
2019-03-23T00:34:47.457Z,11.80
2019-03-23T00:37:37.150Z,11.70
2019-03-23T00:40:26.707Z,11.70
2019-03-23T00:43:17.181Z,11.70
2019-03-23T00:46:06.113Z,11.70
2019-03-23T00:48:55.602Z,11.60
2019-03-23T00:51:44.684Z,11.60
2019-03-23T00:54:34.062Z,11.50
2019-03-23T01:00:12.912Z,11.50
2019-03-23T01:03:02.838Z,11.40
2019-03-23T01:05:52.310Z,11.40
2019-03-23T01:08:41.493Z,11.30
2019-03-23T01:11:31.170Z,11.20
2019-03-23T01:14:20.559Z,11.10
2019-03-23T01:17:10.221Z,11.10
2019-03-23T01:19:59.562Z,11.00
2019-03-23T01:22:49.301Z,10.90
2019-03-23T01:25:38.081Z,10.80
2019-03-23T01:28:27.518Z,10.70
2019-03-23T01:31:17.276Z,10.50
2019-03-23T01:34:06.792Z,10.30
2019-03-23T01:36:37.401Z,10.30
2019-03-23T01:39:27.111Z,10.30
2019-03-23T01:42:16.284Z,10.20
2019-03-23T01:45:06.697Z,10.10
2019-03-23T01:47:56.211Z,10.00
2019-03-23T01:50:46.219Z,9.90
2019-03-23T01:53:35.320Z,9.90
2019-03-23T01:56:24.767Z,9.60
2019-03-23T01:59:14.617Z,9.00
2019-03-23T02:02:03.818Z,9.00
2019-03-23T02:04:53.709Z,8.90
2019-03-23T02:07:43.417Z,8.80
2019-03-23T02:10:32.876Z,8.90
2019-03-23T02:13:22.080Z,8.80
2019-03-23T02:16:11.692Z,8.80
2019-03-23T02:19:00.756Z,8.90
2019-03-23T02:21:50.539Z,9.00
2019-03-23T02:24:40.034Z,9.00
2019-03-23T02:27:29.616Z,9.00
2019-03-23T02:30:19.444Z,8.80
2019-03-23T02:33:09.595Z,8.70
2019-03-23T02:35:58.741Z,8.70
2019-03-23T02:38:48.539Z,8.80
2019-03-23T02:41:37.890Z,8.90
2019-03-23T02:44:28.118Z,9.00
2019-03-23T02:47:17.698Z,9.00
2019-03-23T02:50:09.059Z,9.00
2019-03-23T02:52:58.921Z,9.00
2019-03-23T02:55:48.135Z,9.00
2019-03-23T02:58:37.815Z,9.00
2019-03-23T03:01:26.672Z,9.00
2019-03-23T03:04:15.899Z,8.90
2019-03-23T03:07:05.341Z,8.90
2019-03-23T03:09:54.693Z,8.90
2019-03-23T03:12:44.591Z,8.90
2019-03-23T03:15:34.289Z,9.00
2019-03-23T03:18:07.154Z,9.00
2019-03-23T03:20:56.626Z,9.00
2019-03-23T03:23:46.171Z,9.00
2019-03-23T03:26:35.875Z,8.80
2019-03-23T03:29:15.705Z,8.80
2019-03-23T03:32:05.141Z,8.80
2019-03-23T03:34:55.036Z,8.90
2019-03-23T03:37:56.008Z,8.90
2019-03-23T03:40:31.247Z,8.90
2019-03-23T03:43:20.720Z,9.00
2019-03-23T03:46:09.657Z,9.00
2019-03-23T03:49:11.853Z,9.00
2019-03-23T03:51:50.098Z,9.10
2019-03-23T03:54:39.308Z,9.10
2019-03-23T03:57:28.531Z,9.10
2019-03-23T04:00:18.382Z,9.10
2019-03-23T04:02:49.411Z,9.10
2019-03-23T04:05:39.248Z,9.10
2019-03-23T04:08:28.409Z,9.20
2019-03-23T04:11:17.578Z,9.30
2019-03-23T04:14:07.068Z,9.30
2019-03-23T04:16:56.895Z,9.40
2019-03-23T04:19:46.470Z,9.40
2019-03-23T04:22:36.249Z,9.40
2019-03-23T04:25:25.872Z,9.40
2019-03-23T04:28:16.268Z,9.30
2019-03-23T04:31:05.235Z,9.30
2019-03-23T04:33:54.370Z,9.30
2019-03-23T04:36:43.457Z,9.40
2019-03-23T04:39:33.116Z,9.40
2019-03-23T04:42:22.924Z,9.50
2019-03-23T04:45:12.889Z,9.50
2019-03-23T04:48:01.869Z,9.60
2019-03-23T04:50:51.489Z,9.60
2019-03-23T04:53:41.164Z,9.70
2019-03-23T04:56:14.570Z,9.70
2019-03-23T04:59:03.296Z,9.80
2019-03-23T05:01:53.198Z,9.70
2019-03-23T05:04:42.656Z,9.70
2019-03-23T05:07:32.087Z,9.70
2019-03-23T05:10:20.876Z,9.70
2019-03-23T05:13:10.394Z,9.80
2019-03-23T05:15:59.532Z,9.70
2019-03-23T05:18:49.066Z,9.70
2019-03-23T05:21:38.615Z,9.80
2019-03-23T05:24:27.614Z,9.80
2019-03-23T05:27:17.343Z,9.80
2019-03-23T05:30:08.151Z,9.80
2019-03-23T05:32:43.099Z,9.80
2019-03-23T05:35:32.311Z,9.80
2019-03-23T05:38:21.667Z,9.70
2019-03-23T05:41:11.730Z,9.80
2019-03-23T05:44:01.443Z,9.80
2019-03-23T05:46:50.747Z,9.80
2019-03-23T05:49:40.367Z,9.70
2019-03-23T05:52:29.363Z,9.70
2019-03-23T05:55:18.744Z,9.70
2019-03-23T05:58:07.954Z,9.70
2019-03-23T06:00:57.216Z,9.80
2019-03-23T06:03:46.542Z,9.80
2019-03-23T06:06:36.546Z,9.80
2019-03-23T06:09:26.347Z,9.80
2019-03-23T06:12:09.252Z,9.80
2019-03-23T06:14:58.540Z,9.80
2019-03-23T06:17:48.413Z,9.80
2019-03-23T06:20:37.812Z,9.80
2019-03-23T06:23:27.334Z,9.80
2019-03-23T06:26:17.002Z,9.80
2019-03-23T06:29:06.821Z,9.80
2019-03-23T06:31:56.295Z,9.80
2019-03-23T06:34:45.948Z,9.80
2019-03-23T06:37:35.516Z,9.80
2019-03-23T06:40:25.206Z,9.90
2019-03-23T06:43:14.930Z,9.90
2019-03-23T06:46:04.414Z,10.00
2019-03-23T06:48:54.051Z,9.90
2019-03-23T06:51:43.204Z,9.90
2019-03-23T06:54:32.940Z,10.00
2019-03-23T06:57:22.123Z,10.00
2019-03-23T07:00:12.420Z,10.00
2019-03-23T07:03:01.944Z,10.00
2019-03-23T07:05:51.574Z,10.10
2019-03-23T07:08:41.353Z,10.10
2019-03-23T07:11:30.391Z,10.20
2019-03-23T07:14:19.773Z,10.20
2019-03-23T07:17:09.455Z,10.20
2019-03-23T07:19:59.209Z,10.20
2019-03-23T07:22:48.776Z,10.20
2019-03-23T07:25:38.671Z,10.20
2019-03-23T07:28:28.588Z,10.30
2019-03-23T07:31:19.138Z,10.30
2019-03-23T07:34:08.397Z,10.50
2019-03-23T07:36:57.695Z,10.50
2019-03-23T07:39:47.529Z,10.60
2019-03-23T07:42:37.098Z,10.60
2019-03-23T07:45:26.064Z,10.70
2019-03-23T07:48:16.186Z,10.70
2019-03-23T07:51:06.444Z,10.80
2019-03-23T07:53:55.868Z,10.80
2019-03-23T07:56:45.501Z,10.80
2019-03-23T07:59:35.026Z,10.90
2019-03-23T08:02:24.271Z,10.90
2019-03-23T08:05:13.646Z,11.00
2019-03-23T08:08:03.152Z,11.10
2019-03-23T08:10:52.980Z,11.10
2019-03-23T08:13:42.566Z,11.10
2019-03-23T08:16:31.444Z,11.10
2019-03-23T08:19:21.351Z,11.20
2019-03-23T08:22:11.307Z,11.20
2019-03-23T08:25:00.412Z,11.20
2019-03-23T08:27:50.082Z,11.20
2019-03-23T08:30:39.654Z,11.20
2019-03-23T08:33:28.804Z,11.20
2019-03-23T08:36:18.653Z,11.20
2019-03-23T08:39:08.988Z,11.30
2019-03-23T08:41:58.209Z,11.30
2019-03-23T08:44:47.971Z,11.40
2019-03-23T08:47:37.757Z,11.40
2019-03-23T08:50:27.451Z,11.50
2019-03-23T08:53:17.486Z,11.50
2019-03-23T08:56:06.767Z,11.50
2019-03-23T08:58:56.307Z,11.50
2019-03-23T09:01:45.704Z,11.50
2019-03-23T09:04:35.893Z,11.40
2019-03-23T09:07:25.893Z,11.40
2019-03-23T09:10:15.375Z,11.50
2019-03-23T09:13:04.960Z,11.50
2019-03-23T09:15:54.860Z,11.40
2019-03-23T09:18:44.020Z,11.40
2019-03-23T09:21:33.264Z,11.40
2019-03-23T09:24:23.104Z,11.40
2019-03-23T09:27:12.731Z,11.50
2019-03-23T09:30:01.818Z,11.40
2019-03-23T09:32:51.879Z,11.50
2019-03-23T09:35:41.594Z,11.50
2019-03-23T09:38:31.235Z,11.50
2019-03-23T09:41:21.371Z,11.50
2019-03-23T09:44:10.869Z,11.50
2019-03-23T09:47:00.782Z,11.50
2019-03-23T09:49:50.571Z,11.50
2019-03-23T09:52:40.415Z,11.40
2019-03-23T09:55:30.327Z,11.40
2019-03-23T09:58:19.416Z,11.40
2019-03-23T10:01:08.800Z,11.30
2019-03-23T10:03:58.562Z,11.40
2019-03-23T10:06:48.032Z,11.40
2019-03-23T10:09:38.072Z,11.40
2019-03-23T10:12:27.288Z,11.50
2019-03-23T10:15:16.864Z,11.50
2019-03-23T10:18:06.072Z,11.60
2019-03-23T10:20:56.028Z,11.70
2019-03-23T10:23:45.650Z,12.00
2019-03-23T10:26:35.606Z,12.40
2019-03-23T10:29:26.108Z,12.70
2019-03-23T10:32:15.472Z,12.90
2019-03-23T10:35:06.421Z,13.00
2019-03-23T10:37:55.914Z,13.20
2019-03-23T10:40:46.019Z,13.30
2019-03-23T10:43:35.638Z,13.40
2019-03-23T10:46:25.526Z,13.50
2019-03-23T10:49:15.122Z,13.70
2019-03-23T10:52:04.900Z,13.70
2019-03-23T10:54:54.671Z,13.60
2019-03-23T10:57:44.270Z,13.40
2019-03-23T11:00:34.133Z,13.30
2019-03-23T11:03:23.561Z,13.20
2019-03-23T11:06:13.044Z,13.40
2019-03-23T11:09:04.712Z,13.60
2019-03-23T11:11:54.163Z,14.00
2019-03-23T11:14:44.213Z,14.20
2019-03-23T11:17:33.837Z,14.20
2019-03-23T11:20:23.480Z,14.10
2019-03-23T11:23:13.377Z,14.20
2019-03-23T11:26:02.583Z,14.20
2019-03-23T11:28:52.052Z,14.20
2019-03-23T11:31:42.388Z,14.20
2019-03-23T11:34:31.926Z,14.20
2019-03-23T11:37:21.749Z,14.40
2019-03-23T11:40:11.988Z,14.50
2019-03-23T11:43:01.626Z,14.50
2019-03-23T11:45:51.730Z,14.60
2019-03-23T11:48:25.928Z,14.60
2019-03-23T11:50:56.507Z,14.70
2019-03-23T11:53:27.243Z,14.70
2019-03-23T11:55:57.777Z,14.80
2019-03-23T11:58:28.556Z,14.90
2019-03-23T12:00:59.669Z,14.90
2019-03-23T12:03:30.395Z,14.90
2019-03-23T12:06:00.971Z,15.00
2019-03-23T12:08:31.870Z,15.00
2019-03-23T12:11:03.318Z,14.90
2019-03-23T12:13:53.321Z,14.90
2019-03-23T12:16:43.269Z,14.90
2019-03-23T12:19:33.502Z,14.90
2019-03-23T12:22:23.169Z,14.70
2019-03-23T12:25:12.338Z,14.70
2019-03-23T12:28:02.129Z,14.70
2019-03-23T12:30:51.701Z,14.90
2019-03-23T12:33:41.391Z,15.10
2019-03-23T12:36:31.304Z,15.00
2019-03-23T12:39:20.528Z,14.90
2019-03-23T12:42:09.871Z,14.70
2019-03-23T12:44:59.258Z,14.20
2019-03-23T12:47:48.853Z,14.50
2019-03-23T12:50:38.864Z,14.20
2019-03-23T12:53:28.297Z,14.00
2019-03-23T12:56:18.137Z,14.20
2019-03-23T12:59:07.918Z,14.20
2019-03-23T13:01:57.879Z,14.30
2019-03-23T13:04:47.194Z,14.40
2019-03-23T13:07:37.010Z,14.30
2019-03-23T13:10:26.713Z,14.40
2019-03-23T13:13:16.305Z,14.30
2019-03-23T13:16:06.091Z,14.30
2019-03-23T13:18:55.205Z,14.40
2019-03-23T13:21:44.930Z,14.50
2019-03-23T13:24:34.883Z,14.40
2019-03-23T13:27:24.835Z,14.40
2019-03-23T13:30:16.087Z,14.50
2019-03-23T13:33:05.200Z,14.60
2019-03-23T13:35:55.440Z,14.60
2019-03-23T13:38:44.762Z,14.70
2019-03-23T13:41:34.529Z,14.80
2019-03-23T13:44:24.360Z,14.70
2019-03-23T13:47:13.914Z,14.80
2019-03-23T13:50:02.933Z,14.70
2019-03-23T13:52:52.966Z,14.70
2019-03-23T13:55:42.622Z,14.80
2019-03-23T13:58:32.307Z,14.80
2019-03-23T14:01:21.996Z,15.00
2019-03-23T14:04:12.245Z,14.90
2019-03-23T14:07:02.166Z,14.90
2019-03-23T14:09:51.590Z,15.00
2019-03-23T14:12:41.657Z,15.00
2019-03-23T14:15:30.932Z,15.00
2019-03-23T14:18:20.680Z,15.00
2019-03-23T14:20:51.437Z,15.10
2019-03-23T14:23:41.458Z,15.20
2019-03-23T14:26:31.218Z,15.30
2019-03-23T14:29:20.632Z,15.10
2019-03-23T14:31:51.384Z,15.00
2019-03-23T14:34:41.148Z,14.90
2019-03-23T14:37:30.231Z,14.90
2019-03-23T14:40:20.004Z,14.90
2019-03-23T14:43:10.682Z,14.90
2019-03-23T14:46:00.402Z,14.80
2019-03-23T14:48:50.107Z,14.70
2019-03-23T14:51:39.522Z,14.70
2019-03-23T14:54:29.347Z,14.60
2019-03-23T14:57:18.414Z,14.50
2019-03-23T15:00:09.572Z,14.40
2019-03-23T15:02:59.585Z,14.20
2019-03-23T15:05:49.360Z,14.20
2019-03-23T15:08:39.205Z,14.10
2019-03-23T15:11:29.140Z,14.10
2019-03-23T15:14:19.160Z,14.00
2019-03-23T15:17:08.767Z,13.80
2019-03-23T15:19:58.630Z,13.80
2019-03-23T15:22:48.379Z,13.90
2019-03-23T15:25:39.540Z,13.90
2019-03-23T15:28:29.557Z,13.90
2019-03-23T15:31:19.487Z,14.00
2019-03-23T15:34:09.257Z,14.00
2019-03-23T15:36:59.232Z,13.90
2019-03-23T15:39:48.991Z,13.80
2019-03-23T15:42:24.786Z,13.80
2019-03-23T15:44:52.709Z,13.70
2019-03-23T15:47:23.658Z,13.70
2019-03-23T15:50:13.117Z,13.70
2019-03-23T15:53:02.965Z,13.70
2019-03-23T15:55:52.974Z,13.70
2019-03-23T15:58:43.054Z,13.70
2019-03-23T16:01:33.218Z,13.70
2019-03-23T16:04:23.030Z,13.70
2019-03-23T16:07:12.449Z,13.70
2019-03-23T16:10:01.763Z,13.70
2019-03-23T16:12:51.380Z,13.70
2019-03-23T16:15:40.983Z,13.70
2019-03-23T16:18:30.177Z,13.70
2019-03-23T16:21:19.640Z,13.70
2019-03-23T16:24:09.119Z,13.60
2019-03-23T16:26:59.189Z,13.60
2019-03-23T16:29:48.762Z,13.60
2019-03-23T16:32:38.193Z,13.50
2019-03-23T16:35:27.607Z,13.50
2019-03-23T16:38:17.276Z,13.40
2019-03-23T16:41:07.237Z,13.50
2019-03-23T16:43:57.266Z,13.50
2019-03-23T16:46:48.845Z,13.40
2019-03-23T16:49:38.689Z,13.40
2019-03-23T16:52:28.550Z,13.30
2019-03-23T16:55:20.151Z,13.10
2019-03-23T16:58:16.023Z,13.10
2019-03-23T17:01:00.228Z,13.10
2019-03-23T17:03:34.458Z,13.20
2019-03-23T17:06:23.705Z,13.20
2019-03-23T17:09:12.809Z,13.20
2019-03-23T17:12:02.516Z,13.10
2019-03-23T17:14:52.082Z,13.10
2019-03-23T17:17:41.934Z,13.10
2019-03-23T17:20:31.892Z,13.10
2019-03-23T17:23:21.130Z,13.10
2019-03-23T17:26:10.677Z,13.10
2019-03-23T17:29:00.111Z,13.10
2019-03-23T17:31:49.982Z,13.10
2019-03-23T17:34:39.684Z,13.10
2019-03-23T17:37:28.831Z,13.10
2019-03-23T17:40:18.495Z,13.00
2019-03-23T17:43:08.663Z,13.00
2019-03-23T17:45:58.208Z,12.90
2019-03-23T17:48:48.891Z,12.90
2019-03-23T17:51:39.330Z,12.90
2019-03-23T17:54:28.352Z,12.90
2019-03-23T17:57:17.958Z,12.90
2019-03-23T18:00:08.166Z,12.90
2019-03-23T18:02:57.502Z,12.90
2019-03-23T18:05:46.619Z,12.90
2019-03-23T18:08:36.123Z,12.90
2019-03-23T18:11:07.067Z,12.80
2019-03-23T18:13:56.365Z,12.80
2019-03-23T18:16:46.011Z,12.80
2019-03-23T18:19:35.987Z,12.70
2019-03-23T18:22:25.868Z,12.70
2019-03-23T18:25:16.074Z,12.70
2019-03-23T18:28:05.849Z,12.70
2019-03-23T18:30:55.729Z,12.60
2019-03-23T18:33:45.457Z,12.60
2019-03-23T18:36:35.934Z,12.60
2019-03-23T18:39:25.951Z,12.50
2019-03-23T18:42:15.592Z,12.40
2019-03-23T18:45:05.698Z,12.40
2019-03-23T18:47:55.414Z,12.30
2019-03-23T18:50:45.198Z,12.30
2019-03-23T18:53:34.989Z,12.30
2019-03-23T18:56:24.138Z,12.30
2019-03-23T18:59:14.135Z,12.30
2019-03-23T19:02:03.484Z,12.30
2019-03-23T19:04:54.332Z,12.20
2019-03-23T19:07:43.599Z,12.20
2019-03-23T19:10:32.792Z,12.20
2019-03-23T19:13:23.075Z,12.20
2019-03-23T19:16:12.755Z,12.10
2019-03-23T19:19:02.079Z,12.10
2019-03-23T19:21:51.906Z,12.10
2019-03-23T19:24:41.321Z,12.10
2019-03-23T19:27:30.916Z,12.10
2019-03-23T19:30:20.979Z,12.10
2019-03-23T19:33:10.451Z,12.00
2019-03-23T19:36:00.236Z,12.00
2019-03-23T19:38:49.858Z,12.00
2019-03-23T19:41:39.713Z,11.90
2019-03-23T19:44:29.282Z,11.90
2019-03-23T19:47:18.942Z,11.90
2019-03-23T19:50:09.579Z,11.90
2019-03-23T19:52:59.197Z,11.90
2019-03-23T19:55:48.512Z,11.90
2019-03-23T19:58:38.251Z,11.90
2019-03-23T20:01:27.799Z,11.90
2019-03-23T20:04:17.588Z,11.90
2019-03-23T20:07:07.232Z,11.90
2019-03-23T20:09:56.644Z,11.80
2019-03-23T20:12:46.777Z,11.70
2019-03-23T20:15:36.924Z,11.70
2019-03-23T20:18:26.612Z,11.70
2019-03-23T20:21:15.894Z,11.70
2019-03-23T20:24:05.503Z,11.70
2019-03-23T20:26:55.160Z,11.60
2019-03-23T20:29:44.667Z,11.60
2019-03-23T20:32:34.881Z,11.60
2019-03-23T20:35:24.171Z,11.60
2019-03-23T20:38:13.786Z,11.60
2019-03-23T20:41:03.273Z,11.60
2019-03-23T20:43:52.986Z,11.60
2019-03-23T20:46:43.999Z,11.60
2019-03-23T20:49:33.965Z,11.60
2019-03-23T20:52:23.848Z,11.60
2019-03-23T20:55:24.441Z,11.60
2019-03-23T20:58:13.968Z,11.60
2019-03-23T21:01:03.909Z,11.60
2019-03-23T21:03:53.887Z,11.60
2019-03-23T21:06:43.649Z,11.60
2019-03-23T21:09:32.570Z,11.60
2019-03-23T21:12:22.421Z,11.60
2019-03-23T21:15:12.170Z,11.60
2019-03-23T21:18:02.007Z,11.60
2019-03-23T21:20:51.652Z,11.60
2019-03-23T21:23:41.318Z,11.60
2019-03-23T21:26:31.208Z,11.60
2019-03-23T21:29:20.924Z,11.60
2019-03-23T21:32:10.854Z,11.60
2019-03-23T21:35:00.364Z,11.60
2019-03-23T21:37:49.965Z,11.60
2019-03-23T21:40:39.502Z,11.60
2019-03-23T21:43:29.301Z,11.50
2019-03-23T21:46:18.946Z,11.50
2019-03-23T21:49:08.541Z,11.50
2019-03-23T21:51:58.291Z,11.60
2019-03-23T21:54:47.739Z,11.60
2019-03-23T21:57:37.799Z,11.70
2019-03-23T22:00:34.435Z,11.60
2019-03-23T22:03:24.185Z,11.50
2019-03-23T22:05:56.468Z,11.50
2019-03-23T22:08:46.341Z,11.50
2019-03-23T22:11:36.425Z,11.50
2019-03-23T22:14:25.905Z,11.50
2019-03-23T22:17:02.790Z,11.50
2019-03-23T22:19:52.826Z,11.50
2019-03-23T22:22:42.630Z,11.40
2019-03-23T22:25:32.297Z,11.40
2019-03-23T22:28:05.684Z,11.40
2019-03-23T22:30:55.295Z,11.40
2019-03-23T22:33:44.670Z,11.40
2019-03-23T22:36:34.224Z,11.40
2019-03-23T22:39:24.038Z,11.40
2019-03-23T22:42:14.267Z,11.40
2019-03-23T22:45:04.989Z,11.90
2019-03-23T22:47:55.218Z,11.40
2019-03-23T22:50:45.021Z,11.40
2019-03-23T22:53:34.576Z,11.30
2019-03-23T22:56:24.234Z,11.40
2019-03-23T22:59:15.453Z,11.40
2019-03-23T23:02:05.321Z,11.40
2019-03-23T23:04:55.019Z,11.40
2019-03-23T23:07:25.854Z,11.40
2019-03-23T23:10:15.869Z,11.30
2019-03-23T23:13:04.989Z,11.30
2019-03-23T23:15:54.471Z,11.30
2019-03-23T23:18:43.945Z,11.20
2019-03-23T23:21:33.221Z,11.20
2019-03-23T23:24:22.697Z,11.30
2019-03-23T23:27:12.405Z,11.20
2019-03-23T23:30:02.456Z,11.10
2019-03-23T23:32:52.360Z,11.00
2019-03-23T23:35:41.287Z,11.00
2019-03-23T23:38:30.658Z,11.00
2019-03-23T23:41:20.400Z,11.00
2019-03-23T23:44:10.115Z,11.00
2019-03-23T23:47:00.611Z,10.90
2019-03-23T23:49:50.744Z,11.00
2019-03-23T23:52:39.887Z,11.00
2019-03-23T23:55:29.172Z,11.00
2019-03-23T23:58:18.793Z,10.90
